createdAt,value
2022-10-19T00:01:20.681Z,10.98
2022-10-19T00:06:26.596Z,9.35
2022-10-19T00:11:28.294Z,7.70
2022-10-19T00:16:31.283Z,8.93
2022-10-19T00:21:32.797Z,8.15
2022-10-19T00:26:34.353Z,10.77
2022-10-19T00:31:35.797Z,7.57
2022-10-19T00:36:38.761Z,9.95
2022-10-19T00:41:40.292Z,9.57
2022-10-19T00:46:43.237Z,8.85
2022-10-19T00:51:46.482Z,11.68
2022-10-19T00:56:49.463Z,12.23
2022-10-19T01:01:50.936Z,11.27
2022-10-19T01:06:53.039Z,6.65
2022-10-19T01:12:31.110Z,6.78
2022-10-19T01:18:06.208Z,7.22
2022-10-19T01:23:35.494Z,9.10
2022-10-19T01:29:01.964Z,5.93
2022-10-19T01:34:14.563Z,10.65
2022-10-19T01:39:24.717Z,9.93
2022-10-19T01:44:54.197Z,10.38
2022-10-19T01:50:24.676Z,14.98
2022-10-19T01:55:26.343Z,11.57
2022-10-19T02:00:27.801Z,12.57
2022-10-19T02:05:30.827Z,13.43
2022-10-19T02:10:32.638Z,8.13
2022-10-19T02:15:35.669Z,11.40
2022-10-19T02:20:37.410Z,8.85
2022-10-19T02:25:38.865Z,14.10
2022-10-19T02:30:40.334Z,9.88
2022-10-19T02:35:41.780Z,10.10
2022-10-19T02:40:45.341Z,11.85
2022-10-19T02:45:57.003Z,12.05
2022-10-19T02:50:58.468Z,9.27
2022-10-19T02:55:59.930Z,12.57
2022-10-19T03:01:01.418Z,9.75
2022-10-19T03:06:02.927Z,11.27
2022-10-19T03:11:04.463Z,11.40
2022-10-19T03:16:10.369Z,10.50
2022-10-19T03:21:12.566Z,8.57
2022-10-19T03:26:15.837Z,11.23
2022-10-19T03:31:17.302Z,7.03
2022-10-19T03:36:25.604Z,10.02
2022-10-19T03:41:28.424Z,10.55
2022-10-19T03:46:30.005Z,7.30
2022-10-19T03:51:31.874Z,13.02
2022-10-19T03:56:33.531Z,8.50
2022-10-19T04:01:37.158Z,10.65
2022-10-19T04:06:39.898Z,11.80
2022-10-19T04:11:41.490Z,8.68
2022-10-19T04:16:42.973Z,7.35
2022-10-19T04:21:44.869Z,9.95
2022-10-19T04:26:48.269Z,9.18
2022-10-19T04:31:50.056Z,12.32
2022-10-19T04:36:52.545Z,15.93
2022-10-19T04:41:54.224Z,9.23
2022-10-19T04:46:55.728Z,12.90
2022-10-19T04:51:57.207Z,9.35
2022-10-19T04:56:58.669Z,7.40
2022-10-19T05:02:00.130Z,11.70
2022-10-19T05:07:01.593Z,9.18
2022-10-19T05:12:03.784Z,12.55
2022-10-19T05:17:05.238Z,11.60
2022-10-19T05:22:06.694Z,8.80
2022-10-19T05:27:08.150Z,13.15
2022-10-19T05:32:09.611Z,10.25
2022-10-19T05:37:11.064Z,8.38
2022-10-19T05:42:12.518Z,8.88
2022-10-19T05:47:14.015Z,11.00
2022-10-19T05:52:17.658Z,6.43
2022-10-19T05:57:19.197Z,5.47
2022-10-19T06:02:20.669Z,11.50
2022-10-19T06:07:22.125Z,4.57
2022-10-19T06:12:25.063Z,8.95
2022-10-19T06:17:28.776Z,8.30
2022-10-19T06:22:30.224Z,9.52
2022-10-19T06:27:32.120Z,8.43
2022-10-19T06:32:33.901Z,6.45
2022-10-19T06:37:35.585Z,8.07
2022-10-19T06:42:39.997Z,8.77
2022-10-19T06:47:41.498Z,4.03
2022-10-19T06:52:43.121Z,8.75
2022-10-19T06:57:45.189Z,11.57
2022-10-19T07:02:46.665Z,8.00
2022-10-19T07:07:48.150Z,7.80
2022-10-19T07:12:49.636Z,12.07
2022-10-19T07:17:52.817Z,5.22
2022-10-19T07:22:54.299Z,7.32
2022-10-19T07:27:55.780Z,12.80
2022-10-19T07:32:57.232Z,10.77
2022-10-19T07:37:58.689Z,8.82
2022-10-19T07:43:00.141Z,16.40
2022-10-19T16:01:56.147Z,6.57
2022-10-19T16:06:57.859Z,4.85
2022-10-19T16:11:59.305Z,7.60
2022-10-19T16:17:00.767Z,6.97
2022-10-19T16:22:02.242Z,6.43
2022-10-19T16:27:03.743Z,8.18
2022-10-19T16:32:05.299Z,7.85
2022-10-19T16:37:07.435Z,7.18
2022-10-19T16:42:09.142Z,5.72
2022-10-19T16:47:10.601Z,6.00
2022-10-19T16:52:14.014Z,5.47
2022-10-19T16:57:15.465Z,4.60
2022-10-19T17:02:16.925Z,6.18
2022-10-19T17:07:18.462Z,6.25
2022-10-19T17:12:19.931Z,7.97
2022-10-19T17:17:21.409Z,2.65
2022-10-19T17:22:22.854Z,2.58
2022-10-19T17:27:24.318Z,7.68
2022-10-19T17:32:25.780Z,6.88
2022-10-19T17:37:27.245Z,5.85
2022-10-19T17:42:28.725Z,4.47
2022-10-19T17:47:30.553Z,6.38
2022-10-19T17:52:32.033Z,6.93
2022-10-19T17:57:35.486Z,6.07
2022-10-19T18:02:37.230Z,5.95
2022-10-19T18:07:38.812Z,6.85
2022-10-19T18:12:40.279Z,7.95
2022-10-19T18:17:41.739Z,5.20
2022-10-19T18:27:49.580Z,6.57
2022-10-19T18:32:51.031Z,5.45
2022-10-19T18:37:52.475Z,3.03
2022-10-19T18:42:53.930Z,4.25
2022-10-19T18:47:55.440Z,1.92
2022-10-19T18:52:56.936Z,2.22
2022-10-19T18:57:58.400Z,3.65
2022-10-19T19:02:59.858Z,3.58
2022-10-19T19:08:01.346Z,1.65
2022-10-19T19:13:02.817Z,1.65
2022-10-19T19:18:04.540Z,3.90
2022-10-19T19:23:06.021Z,1.95
2022-10-19T19:28:07.478Z,1.90
2022-10-19T19:33:08.990Z,1.92
2022-10-19T19:38:10.993Z,2.22
2022-10-19T19:43:13.259Z,2.40
2022-10-19T19:48:14.719Z,2.92
2022-10-19T19:53:16.174Z,1.95
2022-10-19T19:58:18.816Z,2.85
2022-10-19T20:03:20.274Z,3.63
2022-10-19T20:08:21.978Z,2.03
2022-10-19T20:13:23.443Z,1.67
2022-10-19T20:18:24.918Z,2.83
2022-10-19T20:23:26.364Z,5.50
2022-10-19T20:28:28.489Z,4.10
2022-10-19T20:33:30.967Z,3.17
2022-10-19T20:38:33.460Z,5.28
2022-10-19T20:43:35.500Z,3.08
2022-10-19T20:48:37.033Z,3.03
2022-10-19T20:53:38.574Z,2.03
2022-10-19T20:58:42.445Z,7.00
2022-10-19T21:03:48.021Z,5.82
2022-10-19T21:08:49.750Z,2.05
2022-10-19T21:14:04.445Z,1.85
2022-10-19T21:19:11.411Z,1.52
2022-10-19T21:24:14.897Z,4.45
2022-10-19T21:29:16.397Z,3.90
2022-10-19T21:34:22.040Z,2.33
2022-10-19T21:39:23.554Z,1.90
2022-10-19T21:44:25.069Z,5.68
2022-10-19T21:49:26.533Z,7.22
2022-10-19T21:54:29.292Z,2.47
2022-10-19T21:59:30.779Z,3.10
2022-10-19T22:04:32.234Z,1.63
2022-10-19T22:09:34.098Z,2.70
2022-10-19T22:14:35.557Z,3.65
2022-10-19T22:19:37.015Z,5.00
2022-10-19T22:24:38.517Z,2.80
2022-10-19T22:29:39.985Z,3.17
2022-10-19T22:34:41.428Z,3.97
2022-10-19T22:39:42.904Z,4.40
2022-10-19T22:44:44.435Z,9.65
2022-10-19T22:49:45.911Z,2.17
2022-10-19T22:54:47.448Z,4.97
2022-10-19T22:59:48.895Z,5.30
2022-10-19T23:04:50.350Z,4.30
2022-10-19T23:09:52.325Z,2.17
2022-10-19T23:14:53.777Z,5.30
2022-10-19T23:19:55.267Z,2.75
2022-10-19T23:24:56.721Z,3.25
2022-10-19T23:29:58.301Z,4.20
2022-10-19T23:34:59.761Z,4.15
2022-10-19T23:40:01.677Z,4.47
2022-10-19T23:45:03.199Z,6.97
2022-10-19T23:50:04.812Z,3.08
2022-10-19T23:55:06.862Z,6.25
